Sand Point, AK

1:15 PM AKDT on September 01, 2014 (GMT -0800)
Sand Point | Change Station
CLOSE
Current Station
Airport
Location: Sand Point,
Elevation: 23 ft
Nearby Weather Stations

Elev 23 ft 55.31 °N, 160.52 °W | Updated 19 minutes ago

Partly Cloudy
Partly Cloudy
57 °F
Feels Like 57 °F
N
5
Wind Variable Wind from West

Today
High -- | Low -- °F
--% Chance of Precip.
Yesterday
High -- | Low -- °F
Precip. -- in
7:48 AM 9:34 PM
Waxing Crescent, 44% visible
Pressure 30.24 in
Visibility 10.0 miles
Clouds Few 11000 ft
Dew Point 45 °F
Humidity 63%
Rainfall 0.00 in
Snow Depth Not available.
UV 4 out of 12
Pollen Not available.
Air Quality Not available.
Flu Activity Not available.
METAR PASD 012056Z 27004KT 10SM FEW110 14/07 A3024 RMK AO1 WEA: NONE (KH) 54000

More Conditions Fewer Conditions

Pressure 30.24 in
Visibility 10.0 miles
Clouds Few 11000 ft
Dew Point 45 °F
Humidity 63%
Rainfall 0.00 in
Snow Depth Not available.
UV 4 out of 12
Pollen Not available.
Air Quality Not available.
Flu Activity Not available.
METAR PASD 012056Z 27004KT 10SM FEW110 14/07 A3024 RMK AO1 WEA: NONE (KH) 54000

More Conditions Fewer Conditions

10-Day Weather Forecast

Almanac

Astronomy

Sep. 01, 2014 Rise Set
Actual Time 7:48 AM AKDT 9:34 PM AKDT
Civil Twilight 7:09 AM AKDT 10:12 PM AKDT
Nautical Twilight 6:21 AM AKDT 11:00 PM AKDT
Astronomical Twilight 5:25 AM AKDT 11:55 PM AKDT
Moon 3:56 PM AKDT No Moon Set
Length of Visible Light 15h 03m
Length of Day
13h 46m
Tomorrow will be 4m 24s shorter.
Waxing Crescent, 44% of the Moon is Illuminated
Today
Waxing Crescent
Sep 2
First Quarter
Sep 8
Full
Sep 15
Last Quarter
Sep 24
New

Today's Extremes

State Highs State Lows

Community

WunderPhotos

Upload Photos

1,749,409 photos uploaded!

WunderBlogs® & News

Nearby

Snow Depth

Station Depth Elevation
Mcneil Canyon 1 in 1320 ft
MF Bradley River 2 in 2300 ft
Cooper Lake 23 in 1200 ft
Grouse Creek Divide 0 in 700 ft
Summit Creek 0 in 1400 ft

Earthquake Activity

City Distance Mag. Time & Date
No recent earthquake activity has been reported nearby.
Minimum magnitude displayed is 2.5.

Coastal Water Temperatures

Place Temperature
No Stations Reporting

Nearby Weather Stations